Time;durP1;ratioP1;P1;durP2;ratioP2;P2;SDS_P1;SDS_P2;PMS_P1;PMS_P2;Temp;Humidity;BMP_temperature;BMP_pressure;BME280_temperature;BME280_humidity;BME280_pressure;Samples;Min_cycle;Max_cycle;Signal;HPM_P1;HPM_P2
2022/10/15 00:01:18;;;;;;;11.30;4.45;;;;;;;12.88;62.52;94868.31;4162141;28;20127;-55
2022/10/15 00:03:20;;;;;;;7.43;4.47;;;;;;;12.88;62.30;94864.84;4164233;28;20078;-58
2022/10/15 00:05:22;;;;;;;6.75;4.40;;;;;;;12.82;62.47;94870.78;4160750;28;20393;-56
2022/10/15 00:07:24;;;;;;;6.78;4.47;;;;;;;12.74;62.76;94873.47;4163799;28;20209;-57
2022/10/15 00:09:26;;;;;;;5.75;3.72;;;;;;;12.54;63.44;94871.19;4163655;28;20055;-58
2022/10/15 00:11:30;;;;;;;8.63;4.50;;;;;;;12.50;63.94;94864.63;4163609;28;20041;-58
2022/10/15 00:13:32;;;;;;;;;;;;;;;12.54;64.07;94867.72;4164606;28;20049;-60
2022/10/15 00:15:36;;;;;;;7.18;4.22;;;;;;;12.57;63.99;94862.97;4162150;28;20043;-57
2022/10/15 00:17:37;;;;;;;6.47;4.43;;;;;;;12.66;63.66;94864.59;4163611;28;20049;-58
2022/10/15 00:19:39;;;;;;;8.57;4.88;;;;;;;12.72;63.95;94862.28;4163227;28;20133;-58
2022/10/15 00:21:41;;;;;;;4.22;3.78;;;;;;;12.78;63.82;94861.63;4162141;28;20061;-60
2022/10/15 00:23:43;;;;;;;8.45;4.25;;;;;;;12.81;63.86;94863.91;4163077;28;20545;-55
2022/10/15 00:25:45;;;;;;;5.35;4.05;;;;;;;12.77;63.79;94852.06;4163510;28;20077;-60
2022/10/15 00:27:47;;;;;;;5.55;4.15;;;;;;;12.76;64.32;94850.44;4163745;28;20243;-58
2022/10/15 00:29:48;;;;;;;6.60;4.03;;;;;;;12.80;64.03;94854.34;4163885;28;20107;-55
2022/10/15 00:31:50;;;;;;;7.32;4.60;;;;;;;12.83;64.38;94848.78;4161987;28;20049;-57
2022/10/15 00:33:53;;;;;;;6.68;4.03;;;;;;;12.87;64.37;94852.72;4157077;28;20054;-58
2022/10/15 00:36:06;;;;;;;6.95;4.03;;;;;;;12.88;64.41;94851.72;4163808;28;20060;-59
2022/10/15 00:38:08;;;;;;;5.40;4.10;;;;;;;12.86;64.53;94844.00;4161297;28;20157;-57
2022/10/15 00:40:11;;;;;;;5.95;4.57;;;;;;;12.91;64.58;94849.56;4161815;28;20140;-57
2022/10/15 00:42:13;;;;;;;7.43;4.18;;;;;;;12.90;64.62;94841.84;4160798;28;20462;-60
2022/10/15 00:44:20;;;;;;;5.25;4.25;;;;;;;12.91;64.66;94838.25;4163167;28;20547;-56
2022/10/15 00:46:37;;;;;;;7.20;4.40;;;;;;;12.84;64.66;94834.63;4162011;28;20647;-58
2022/10/15 00:48:39;;;;;;;6.75;4.15;;;;;;;12.89;64.54;94834.97;4161839;28;20091;-56
2022/10/15 00:50:41;;;;;;;7.03;4.43;;;;;;;12.83;65.20;94831.19;4162162;28;20049;-56
2022/10/15 00:53:02;;;;;;;5.88;4.20;;;;;;;12.85;64.74;94823.13;4163012;28;20056;-55
2022/10/15 00:55:09;;;;;;;7.57;3.95;;;;;;;12.90;65.10;94826.06;4159499;28;20045;-58
2022/10/15 00:57:11;;;;;;;6.15;4.43;;;;;;;12.93;65.14;94823.13;4158574;28;20072;-56
2022/10/15 00:59:13;;;;;;;8.45;4.47;;;;;;;12.93;64.93;94823.13;4161574;28;20564;-56
2022/10/15 01:01:15;;;;;;;6.35;4.53;;;;;;;12.88;65.11;94823.63;4159291;28;20073;-57
2022/10/15 01:03:16;;;;;;;6.97;4.65;;;;;;;12.85;65.08;94823.13;4162228;28;20049;-58
2022/10/15 01:05:19;;;;;;;7.55;4.65;;;;;;;12.71;65.53;94827.28;4159326;28;20712;-59
2022/10/15 01:07:20;;;;;;;7.00;4.95;;;;;;;12.72;65.54;94830.75;4161882;28;20060;-58
2022/10/15 01:09:22;;;;;;;6.85;4.65;;;;;;;12.79;65.46;94829.88;4163013;28;20053;-62
2022/10/15 01:11:43;;;;;;;9.15;4.72;;;;;;;12.85;65.33;94823.94;4162211;28;20136;-62
2022/10/15 01:14:05;;;;;;;9.52;4.53;;;;;;;12.85;65.60;94823.94;4161883;28;20049;-63
2022/10/15 01:16:20;;;;;;;6.93;4.95;;;;;;;12.81;65.23;94833.16;4154946;28;20132;-67
2022/10/15 01:18:32;;;;;;;7.68;4.68;;;;;;;12.69;66.00;94827.47;4152567;28;20538;-63
2022/10/15 01:20:58;;;;;;;6.60;5.25;;;;;;;12.53;66.46;94827.50;4152303;28;20093;-64
2022/10/15 01:23:30;;;;;;;11.43;5.47;;;;;;;12.39;67.21;94823.75;4162213;28;20129;-63
2022/10/15 01:25:55;;;;;;;7.82;4.72;;;;;;;12.33;67.68;94827.03;4153587;28;20045;-63
2022/10/15 01:28:22;;;;;;;7.85;4.95;;;;;;;12.34;67.94;94830.50;4162547;28;20100;-64
2022/10/15 01:30:47;;;;;;;7.65;5.18;;;;;;;12.17;68.33;94840.19;4142279;28;20060;-64
2022/10/15 01:32:52;;;;;;;8.35;5.50;;;;;;;12.11;68.56;94831.19;4135530;28;20060;-63
2022/10/15 01:35:12;;;;;;;5.55;4.45;;;;;;;12.07;68.95;94828.06;4161263;28;20045;-63
2022/10/15 01:37:17;;;;;;;8.57;5.60;;;;;;;12.03;69.08;94833.81;4175570;28;20060;-62
2022/10/15 01:39:27;;;;;;;8.30;5.28;;;;;;;11.94;69.69;94835.63;4154571;28;20103;-63
2022/10/15 01:41:32;;;;;;;9.02;5.28;;;;;;;12.03;69.69;94839.06;4161086;28;20145;-62
2022/10/15 01:43:50;;;;;;;7.78;5.72;;;;;;;12.05;69.12;94829.22;4162333;28;20491;-62
2022/10/15 01:45:56;;;;;;;8.85;5.30;;;;;;;12.18;68.93;94832.16;4158085;28;20142;-61
2022/10/15 01:48:01;;;;;;;6.97;5.20;;;;;;;12.14;68.83;94825.59;4162146;28;20088;-65
2022/10/15 01:50:04;;;;;;;9.27;5.20;;;;;;;12.18;68.91;94816.41;4161172;28;20566;-63
2022/10/15 01:52:09;;;;;;;6.38;4.68;;;;;;;12.21;68.99;94826.56;4162036;28;20129;-64
2022/10/15 01:54:13;;;;;;;12.48;5.30;;;;;;;12.30;69.01;94824.75;4157816;28;20477;-61
2022/10/15 01:56:19;;;;;;;8.88;5.05;;;;;;;12.38;68.41;94818.66;4156883;28;20049;-61
2022/10/15 01:58:22;;;;;;;7.47;4.60;;;;;;;12.42;68.36;94818.16;4161410;28;20060;-63
2022/10/15 02:00:23;;;;;;;6.45;4.70;;;;;;;12.47;68.18;94830.78;4159471;28;20140;-61
2022/10/15 02:02:25;;;;;;;9.93;5.13;;;;;;;12.48;67.95;94822.75;4162200;28;20154;-62
2022/10/15 02:04:29;;;;;;;6.82;5.43;;;;;;;12.47;67.85;94825.53;4155431;28;20050;-62
2022/10/15 02:06:30;;;;;;;6.55;5.22;;;;;;;12.52;67.93;94823.25;4162170;28;20490;-64
2022/10/15 02:08:38;;;;;;;9.77;4.82;;;;;;;12.44;68.14;94824.06;4162303;28;20046;-63
2022/10/15 02:10:55;;;;;;;7.07;4.45;;;;;;;12.48;68.09;94829.81;4161454;28;20060;-63
2022/10/15 02:13:22;;;;;;;7.82;4.68;;;;;;;12.52;68.17;94827.66;4151351;28;20124;-62
2022/10/15 02:15:35;;;;;;;9.80;5.00;;;;;;;12.57;68.13;94833.25;4158723;28;20321;-62
2022/10/15 02:18:04;;;;;;;6.90;4.88;;;;;;;12.63;67.52;94832.56;4161029;28;20498;-63
2022/10/15 02:20:30;;;;;;;7.80;5.15;;;;;;;12.63;67.45;94830.75;4148610;28;20128;-62
2022/10/15 02:22:40;;;;;;;7.38;4.95;;;;;;;12.66;67.28;94830.41;4159814;28;20053;-57
2022/10/15 02:24:58;;;;;;;8.20;4.95;;;;;;;12.67;67.28;94826.81;4159149;28;20088;-58
2022/10/15 02:27:00;;;;;;;11.48;5.50;;;;;;;12.66;67.72;94825.16;4151373;28;20069;-57
2022/10/15 02:29:05;;;;;;;5.60;4.85;;;;;;;12.60;67.66;94830.28;4160657;28;20617;-58
2022/10/15 02:31:07;;;;;;;7.80;5.15;;;;;;;12.55;67.63;94828.16;4158721;28;20159;-56
2022/10/15 02:33:09;;;;;;;6.95;4.78;;;;;;;12.52;68.12;94836.38;4160714;28;20565;-56
2022/10/15 02:35:11;;;;;;;7.82;4.82;;;;;;;12.46;68.02;94840.47;4161434;28;20119;-56
2022/10/15 02:37:14;;;;;;;10.13;5.18;;;;;;;12.34;68.63;94833.13;4161991;28;20049;-57
2022/10/15 02:39:19;;;;;;;7.47;5.28;;;;;;;12.30;68.81;94835.25;4161315;28;20053;-58
2022/10/15 02:41:21;;;;;;;8.43;4.82;;;;;;;12.28;69.04;94832.81;4159971;28;20050;-62
2022/10/15 02:43:23;;;;;;;8.43;5.32;;;;;;;12.26;69.21;94841.81;4160506;28;20136;-63
2022/10/15 02:45:25;;;;;;;10.48;5.57;;;;;;;12.18;69.61;94841.84;4160068;28;20053;-63
2022/10/15 02:47:26;;;;;;;8.38;4.80;;;;;;;12.00;70.05;94840.22;4161870;28;20538;-63
2022/10/15 02:49:28;;;;;;;9.13;5.25;;;;;;;11.97;70.71;94843.16;4161496;28;20085;-65
2022/10/15 02:51:33;;;;;;;8.65;5.10;;;;;;;12.03;70.67;94841.69;4160230;28;20760;-65
2022/10/15 02:53:35;;;;;;;7.88;4.78;;;;;;;12.09;70.28;94839.22;4160869;28;20480;-56
2022/10/15 02:55:37;;;;;;;7.45;4.68;;;;;;;12.14;70.25;94841.34;4161064;28;20154;-56
2022/10/15 02:57:38;;;;;;;8.30;5.28;;;;;;;12.16;70.34;94834.13;4159883;28;20073;-59
2022/10/15 02:59:41;;;;;;;7.47;5.05;;;;;;;12.20;69.95;94830.19;4161112;28;20111;-58
2022/10/15 03:01:42;;;;;;;7.95;4.90;;;;;;;12.25;69.97;94830.50;4160075;28;20133;-58
2022/10/15 03:03:44;;;;;;;10.93;4.88;;;;;;;12.23;70.00;94837.72;4161348;28;20095;-57
2022/10/15 03:05:46;;;;;;;8.18;4.80;;;;;;;12.01;70.48;94833.16;4155708;28;20125;-57
2022/10/15 03:07:47;;;;;;;7.80;4.75;;;;;;;11.74;71.67;94835.06;4155250;28;20128;-59
2022/10/15 03:09:49;;;;;;;10.35;5.30;;;;;;;11.81;71.58;94827.38;4161466;28;20776;-58
2022/10/15 03:11:51;;;;;;;8.75;4.95;;;;;;;11.69;71.80;94838.16;4148023;28;20119;-59
2022/10/15 03:13:52;;;;;;;10.13;4.13;;;;;;;11.69;72.07;94827.69;4155155;28;20629;-58
2022/10/15 03:15:54;;;;;;;8.43;5.05;;;;;;;11.79;71.60;94831.97;4152890;28;20107;-65
2022/10/15 03:17:56;;;;;;;7.47;5.57;;;;;;;11.86;71.74;94819.81;4161142;28;20128;-55
2022/10/15 03:19:58;;;;;;;8.13;5.32;;;;;;;11.93;70.97;94831.31;4161250;28;20490;-58
2022/10/15 03:21:59;;;;;;;6.80;5.50;;;;;;;12.02;71.13;94832.16;4161413;28;20132;-57
2022/10/15 03:24:01;;;;;;;6.22;4.75;;;;;;;12.04;70.71;94832.81;4153605;28;20537;-59
2022/10/15 03:26:02;;;;;;;7.05;5.18;;;;;;;12.11;70.95;94838.22;4157863;28;20417;-58
2022/10/15 03:28:04;;;;;;;7.05;5.20;;;;;;;12.17;70.33;94840.19;4152076;28;20045;-56
2022/10/15 03:30:07;;;;;;;8.88;5.43;;;;;;;12.26;70.30;94839.19;4163839;28;20125;-56
2022/10/15 03:32:08;;;;;;;8.07;4.97;;;;;;;12.30;69.79;94835.25;4163620;28;20056;-56
2022/10/15 03:34:10;;;;;;;12.68;5.18;;;;;;;12.28;69.48;94837.22;4163748;28;20049;-55
2022/10/15 03:36:12;;;;;;;10.07;5.05;;;;;;;12.27;69.84;94846.91;4164773;28;20053;-61
2022/10/15 03:38:14;;;;;;;9.70;5.25;;;;;;;12.27;70.02;94831.16;4164594;28;20073;-56
2022/10/15 03:40:15;;;;;;;9.45;5.10;;;;;;;12.31;69.76;94838.72;4163863;28;20057;-56
2022/10/15 03:42:17;;;;;;;9.40;5.28;;;;;;;12.22;70.02;94840.53;4163511;28;20128;-59
2022/10/15 03:44:19;;;;;;;5.82;4.75;;;;;;;12.19;69.61;94844.28;4164284;28;20088;-56
2022/10/15 03:46:21;;;;;;;6.55;5.40;;;;;;;12.15;70.10;94842.97;4160984;28;20132;-57
2022/10/15 03:48:22;;;;;;;7.43;4.68;;;;;;;12.12;70.31;94838.06;4163771;28;20169;-64
2022/10/15 03:50:24;;;;;;;5.35;4.85;;;;;;;11.89;71.32;94840.50;4164169;28;20113;-63
2022/10/15 03:52:26;;;;;;;9.13;4.70;;;;;;;11.81;71.39;94841.31;4164139;28;20506;-62
2022/10/15 03:54:27;;;;;;;5.88;4.85;;;;;;;11.80;71.60;94844.91;4164359;28;20114;-62
2022/10/15 03:56:29;;;;;;;7.78;5.10;;;;;;;11.74;71.93;94850.81;4163322;28;20057;-63
2022/10/15 03:58:31;;;;;;;6.60;5.32;;;;;;;11.68;72.04;94854.09;4160369;28;20049;-62
2022/10/15 04:00:33;;;;;;;8.32;5.30;;;;;;;11.65;72.10;94854.41;4152039;28;20149;-62
2022/10/15 04:02:34;;;;;;;7.60;5.50;;;;;;;11.63;72.23;94848.50;4161410;28;20072;-62
2022/10/15 04:04:36;;;;;;;8.00;5.68;;;;;;;11.62;72.41;94852.94;4162615;28;20137;-62
2022/10/15 04:06:38;;;;;;;6.20;5.18;;;;;;;11.72;72.17;94857.19;4164151;28;20144;-62
2022/10/15 04:08:40;;;;;;;8.98;5.78;;;;;;;11.71;72.32;94859.00;4162110;28;20053;-63
2022/10/15 04:10:42;;;;;;;8.70;5.57;;;;;;;11.75;71.84;94852.47;4160110;28;20053;-64
2022/10/15 04:12:43;;;;;;;7.30;4.95;;;;;;;11.68;72.25;94854.91;4163047;28;20071;-64
2022/10/15 04:14:45;;;;;;;7.88;5.57;;;;;;;11.74;72.01;94858.69;4162978;28;20457;-63
2022/10/15 04:16:47;;;;;;;11.18;6.30;;;;;;;11.81;72.06;94851.00;4161392;28;20037;-63
2022/10/15 04:18:48;;;;;;;9.40;6.15;;;;;;;11.82;71.63;94848.19;4163771;28;20481;-62
2022/10/15 04:20:50;;;;;;;11.38;6.20;;;;;;;11.86;71.80;94860.00;4163522;28;20061;-63
2022/10/15 04:22:52;;;;;;;8.43;5.85;;;;;;;11.94;71.65;94853.16;4163703;28;20053;-63
2022/10/15 04:24:54;;;;;;;9.23;5.63;;;;;;;11.97;71.36;94860.72;4163697;28;20145;-62
2022/10/15 04:26:55;;;;;;;8.98;5.40;;;;;;;11.99;71.28;94856.13;4163669;28;20057;-64
2022/10/15 04:28:57;;;;;;;11.32;5.97;;;;;;;11.97;71.16;94858.91;4163898;28;20050;-64
2022/10/15 04:31:00;;;;;;;10.02;5.63;;;;;;;11.89;71.56;94853.63;4161217;28;20111;-64
2022/10/15 04:33:02;;;;;;;10.75;5.85;;;;;;;11.94;71.53;94855.78;4163693;28;20417;-63
2022/10/15 04:35:04;;;;;;;9.93;5.50;;;;;;;11.94;71.46;94855.78;4162407;28;20665;-63
2022/10/15 04:37:05;;;;;;;9.10;6.25;;;;;;;11.92;71.28;94855.16;4158685;28;20049;-62
2022/10/15 04:39:07;;;;;;;10.70;5.80;;;;;;;11.91;71.52;94861.38;4162136;28;20053;-64
2022/10/15 04:41:14;;;;;;;11.40;6.07;;;;;;;11.93;71.06;94860.22;4162329;28;20049;-63
2022/10/15 04:43:15;;;;;;;9.73;5.65;;;;;;;12.00;71.22;94860.38;4163557;28;20053;-65
2022/10/15 04:45:17;;;;;;;11.15;5.80;;;;;;;12.08;70.91;94868.25;4162037;28;20053;-64
2022/10/15 04:47:19;;;;;;;8.02;5.63;;;;;;;12.10;70.38;94871.53;4162459;28;20137;-63
2022/10/15 04:49:21;;;;;;;9.95;5.82;;;;;;;12.17;70.70;94869.06;4163238;28;20608;-64
2022/10/15 04:51:24;;;;;;;8.25;5.97;;;;;;;12.22;70.00;94870.22;4162088;28;20172;-64
2022/10/15 04:53:26;;;;;;;13.57;6.05;;;;;;;12.15;70.09;94873.66;4162153;28;20088;-64
2022/10/15 04:55:28;;;;;;;9.98;6.13;;;;;;;12.09;70.66;94875.97;4162283;28;20083;-62
2022/10/15 04:57:30;;;;;;;12.98;6.78;;;;;;;12.10;70.16;94876.78;4162363;28;20138;-62
2022/10/15 04:59:32;;;;;;;11.25;6.97;;;;;;;12.09;70.46;94877.78;4160006;28;20057;-64
2022/10/15 05:01:34;;;;;;;10.70;6.85;;;;;;;12.07;70.55;94877.94;4155937;28;20136;-62
2022/10/15 05:03:35;;;;;;;10.35;6.32;;;;;;;12.07;70.60;94883.19;4161878;28;20137;-64
2022/10/15 05:05:41;;;;;;;10.75;6.53;;;;;;;12.15;70.63;94881.56;4163540;28;20057;-63
2022/10/15 05:07:43;;;;;;;12.20;6.13;;;;;;;12.13;70.25;94887.00;4154673;28;20509;-62
2022/10/15 05:09:44;;;;;;;10.73;6.35;;;;;;;12.16;70.24;94884.03;4162942;28;20133;-63
2022/10/15 05:11:47;;;;;;;11.15;6.82;;;;;;;12.21;70.46;94888.78;4162657;28;20418;-63
2022/10/15 05:13:49;;;;;;;9.52;6.63;;;;;;;12.29;70.38;94886.97;4163098;28;20045;-62
2022/10/15 05:15:50;;;;;;;11.07;6.32;;;;;;;12.40;70.25;94887.63;4161832;28;20227;-64
2022/10/15 05:17:52;;;;;;;11.02;6.70;;;;;;;12.49;69.70;94891.88;4158885;28;20046;-64
2022/10/15 05:19:54;;;;;;;10.38;6.30;;;;;;;12.56;69.27;94900.75;4162543;28;20085;-63
2022/10/15 05:21:56;;;;;;;11.43;6.28;;;;;;;12.63;69.13;94895.66;4162801;28;20056;-66
2022/10/15 05:23:58;;;;;;;14.73;6.68;;;;;;;12.68;69.20;94891.53;4155136;28;20550;-63
2022/10/15 05:26:01;;;;;;;12.32;6.35;;;;;;;12.75;68.84;94890.84;4162410;28;20053;-63
2022/10/15 05:28:02;;;;;;;9.73;7.05;;;;;;;12.83;68.45;94904.81;4162962;28;20949;-64
2022/10/15 05:30:05;;;;;;;12.20;6.20;;;;;;;12.83;68.03;94899.53;4162067;28;20203;-65
2022/10/15 05:32:07;;;;;;;8.82;6.18;;;;;;;12.65;68.56;94907.63;4161675;28;20049;-62
2022/10/15 05:34:09;;;;;;;10.70;6.97;;;;;;;12.65;68.57;94907.63;4160422;28;20536;-63
2022/10/15 05:36:18;;;;;;;10.40;6.30;;;;;;;12.70;68.76;94907.94;4161260;28;20068;-63
2022/10/15 05:38:20;;;;;;;9.98;6.15;;;;;;;12.79;68.42;94907.94;4162599;28;20144;-64
2022/10/15 05:40:22;;;;;;;9.27;6.07;;;;;;;12.80;68.44;94909.56;4158456;28;20128;-63
2022/10/15 05:42:24;;;;;;;10.13;6.50;;;;;;;12.77;68.11;94917.78;4162543;28;20084;-63
2022/10/15 05:44:26;;;;;;;14.80;6.93;;;;;;;12.70;68.39;94915.03;4162815;28;20119;-65
2022/10/15 05:46:27;;;;;;;9.45;6.50;;;;;;;12.59;68.69;94924.06;4160750;28;20053;-63
2022/10/15 05:48:29;;;;;;;10.38;6.40;;;;;;;12.51;69.02;94924.06;4162418;28;20494;-64
2022/10/15 05:50:31;;;;;;;11.63;6.50;;;;;;;12.43;69.43;94921.44;4161708;28;20068;-65
2022/10/15 05:52:32;;;;;;;13.13;6.80;;;;;;;12.45;69.39;94922.09;4162241;28;20052;-65
2022/10/15 05:54:34;;;;;;;10.80;6.82;;;;;;;12.52;69.49;94914.38;4162490;28;20049;-63
2022/10/15 05:56:36;;;;;;;10.27;6.78;;;;;;;12.63;69.03;94921.94;4162280;28;20459;-62
2022/10/15 05:58:38;;;;;;;11.43;6.85;;;;;;;12.71;68.82;94921.91;4161837;28;20128;-63
2022/10/15 06:00:40;;;;;;;9.80;6.18;;;;;;;12.79;68.38;94921.91;4156716;28;20081;-61
2022/10/15 06:02:42;;;;;;;11.68;6.80;;;;;;;12.70;68.19;94926.34;4160902;28;20076;-63
2022/10/15 06:04:44;;;;;;;10.57;6.68;;;;;;;12.70;68.62;94926.34;4160163;28;20756;-64
2022/10/15 06:06:45;;;;;;;10.00;6.95;;;;;;;12.74;68.98;94920.78;4160182;28;20108;-64
2022/10/15 06:08:47;;;;;;;10.70;6.50;;;;;;;12.76;68.45;94922.25;4162270;28;20060;-63
2022/10/15 06:10:49;;;;;;;12.40;7.05;;;;;;;12.53;69.04;94926.53;4161963;28;20050;-64
2022/10/15 06:12:51;;;;;;;14.77;6.97;;;;;;;12.48;69.02;94924.41;4162153;28;20141;-58
2022/10/15 06:14:53;;;;;;;9.98;6.00;;;;;;;12.45;69.32;94924.72;4162376;28;20088;-60
2022/10/15 06:16:54;;;;;;;10.45;6.45;;;;;;;12.47;69.12;94931.44;4160116;28;20133;-63
2022/10/15 06:18:56;;;;;;;9.88;6.60;;;;;;;12.46;68.75;94931.63;4162180;28;20041;-60
2022/10/15 06:20:58;;;;;;;11.65;6.22;;;;;;;12.59;68.70;94934.56;4162055;28;20141;-58
2022/10/15 06:23:00;;;;;;;13.07;7.20;;;;;;;12.66;68.62;94938.19;4161740;28;20631;-59
2022/10/15 06:25:02;;;;;;;15.20;6.68;;;;;;;12.83;68.31;94938.16;4160819;28;20052;-59
2022/10/15 06:27:04;;;;;;;14.82;6.90;;;;;;;12.90;67.59;94941.75;4159712;28;20049;-57
2022/10/15 06:29:05;;;;;;;12.60;7.07;;;;;;;12.95;67.89;94939.47;4162077;28;20081;-58
2022/10/15 06:31:07;;;;;;;9.50;6.78;;;;;;;13.15;67.77;94939.91;4157486;28;20129;-59
2022/10/15 06:33:09;;;;;;;11.05;6.68;;;;;;;13.18;66.93;94946.63;4161274;28;20084;-58
2022/10/15 06:35:11;;;;;;;10.02;6.78;;;;;;;13.29;67.00;94944.50;4160965;28;20428;-59
2022/10/15 06:37:13;;;;;;;10.18;6.47;;;;;;;13.45;66.86;94946.25;4158313;28;20092;-60
2022/10/15 06:39:15;;;;;;;10.98;5.95;;;;;;;13.63;65.90;94948.63;4161779;28;20147;-57
2022/10/15 06:41:17;;;;;;;10.98;5.43;;;;;;;13.82;65.05;94947.38;4161579;28;20071;-58
2022/10/15 06:43:18;;;;;;;10.27;6.28;;;;;;;13.87;64.30;94949.50;4161662;28;20050;-60
2022/10/15 06:45:20;;;;;;;15.13;6.35;;;;;;;13.84;64.66;94955.13;4159084;28;20059;-59
2022/10/15 06:47:22;;;;;;;10.93;6.47;;;;;;;13.90;64.53;94944.72;4157480;28;20054;-59
2022/10/15 06:49:24;;;;;;;11.20;6.50;;;;;;;13.82;64.37;94949.22;4161299;28;20100;-59
2022/10/15 06:51:26;;;;;;;10.63;5.95;;;;;;;13.91;64.26;94951.59;4161633;28;20136;-61
2022/10/15 06:53:28;;;;;;;9.82;6.28;;;;;;;14.11;64.45;94954.63;4161487;28;20136;-60
2022/10/15 06:55:30;;;;;;;9.43;5.75;;;;;;;14.32;63.69;94948.72;4161253;28;20057;-65
2022/10/15 06:57:32;;;;;;;16.25;5.82;;;;;;;14.32;62.61;94956.63;4161891;28;20591;-64
2022/10/15 06:59:34;;;;;;;9.35;5.28;;;;;;;14.27;62.75;94958.97;4161842;28;20088;-64
2022/10/15 07:01:41;;;;;;;9.30;5.47;;;;;;;14.36;62.33;94957.09;4155194;28;20049;-64
2022/10/15 07:03:43;;;;;;;18.38;5.70;;;;;;;14.36;62.24;94961.56;4160183;28;20057;-65
2022/10/15 07:05:45;;;;;;;9.20;6.13;;;;;;;14.37;62.48;94957.91;4164024;28;20100;-67
2022/10/15 07:07:53;;;;;;;19.08;6.30;;;;;;;14.39;62.49;94956.75;4163079;28;20141;-67
2022/10/15 07:09:55;;;;;;;10.00;5.53;;;;;;;14.21;61.76;94961.47;4157860;28;20041;-63
2022/10/15 07:11:57;;;;;;;11.32;5.10;;;;;;;14.19;62.29;94966.91;4162249;28;20387;-64
2022/10/15 07:13:59;;;;;;;11.55;5.45;;;;;;;14.32;62.52;94958.44;4160185;28;20534;-65
2022/10/15 07:16:08;;;;;;;7.63;5.63;;;;;;;14.38;61.50;94962.19;4155396;28;20112;-65
2022/10/15 07:18:10;;;;;;;12.25;5.78;;;;;;;14.38;61.26;94965.66;4164031;28;20084;-64
2022/10/15 07:20:12;;;;;;;9.35;5.30;;;;;;;14.41;61.11;94967.94;4164115;28;20059;-65
2022/10/15 07:22:14;;;;;;;14.25;6.72;;;;;;;14.54;60.99;94970.00;4164323;28;20049;-66
2022/10/15 07:24:16;;;;;;;9.60;6.28;;;;;;;14.53;60.40;94963.88;4151688;28;20049;-66
2022/10/15 07:26:17;;;;;;;13.93;5.35;;;;;;;14.41;60.18;94964.47;4164445;28;20073;-63
2022/10/15 07:28:19;;;;;;;11.45;5.25;;;;;;;14.41;60.24;94967.09;4163780;28;20061;-66
2022/10/15 07:30:26;;;;;;;10.52;5.85;;;;;;;14.39;60.52;94962.03;4160503;28;20064;-65
2022/10/15 07:32:27;;;;;;;8.27;5.28;;;;;;;14.40;59.95;94965.47;4163644;28;20049;-65
2022/10/15 07:34:29;;;;;;;9.93;5.97;;;;;;;14.37;59.75;94965.81;4164338;28;20060;-64
2022/10/15 07:36:31;;;;;;;9.15;5.30;;;;;;;14.52;59.16;94969.34;4162726;28;20421;-65
2022/10/15 07:38:33;;;;;;;10.60;5.55;;;;;;;14.70;58.43;94961.97;4164288;28;20087;-65
2022/10/15 07:40:35;;;;;;;9.30;5.57;;;;;;;14.70;57.89;94958.50;4157202;28;20049;-65
2022/10/15 07:42:37;;;;;;;7.75;5.43;;;;;;;14.84;57.31;94964.81;4164144;28;20107;-64
2022/10/15 07:44:38;;;;;;;31.35;6.25;;;;;;;14.79;57.64;94961.91;4164612;28;20132;-66
2022/10/15 07:46:40;;;;;;;7.80;5.22;;;;;;;14.90;57.33;94964.91;4161829;28;20136;-64
2022/10/15 07:48:42;;;;;;;10.05;5.20;;;;;;;14.97;56.90;94961.56;4164382;28;20133;-65
2022/10/15 07:50:43;;;;;;;10.90;6.55;;;;;;;15.06;56.41;94963.94;4159323;28;20053;-63
2022/10/15 07:52:46;;;;;;;11.63;8.80;;;;;;;15.20;56.12;94964.16;4162900;28;20083;-65
2022/10/15 07:54:47;;;;;;;10.00;5.65;;;;;;;15.31;56.13;94963.69;4164641;28;20065;-62
2022/10/15 07:56:49;;;;;;;9.45;5.35;;;;;;;15.26;56.39;94966.06;4163784;28;20056;-62
2022/10/15 07:58:51;;;;;;;8.05;5.35;;;;;;;14.92;56.86;94970.81;4163222;28;20123;-65
2022/10/15 08:00:52;;;;;;;10.57;5.32;;;;;;;14.64;57.75;94967.94;4161071;28;20418;-61
2022/10/15 08:02:54;;;;;;;11.55;6.07;;;;;;;14.58;58.31;94978.38;4158381;28;20394;-65
2022/10/15 08:04:56;;;;;;;8.10;5.13;;;;;;;14.65;57.88;94979.34;4162587;28;20104;-64
2022/10/15 08:06:57;;;;;;;12.50;6.15;;;;;;;14.85;57.97;94977.81;4162070;28;20065;-65
2022/10/15 08:08:59;;;;;;;12.50;6.97;;;;;;;15.03;57.39;94972.22;4154212;28;20049;-65
2022/10/15 08:11:06;;;;;;;8.38;5.28;;;;;;;14.93;57.20;94971.66;4163197;28;20058;-66
2022/10/15 08:13:08;;;;;;;7.13;5.18;;;;;;;14.79;57.61;94975.09;4162912;28;20185;-64
2022/10/15 08:15:10;;;;;;;9.02;5.90;;;;;;;14.85;57.88;94974.38;4151085;28;20391;-65
2022/10/15 08:17:11;;;;;;;10.30;5.60;;;;;;;14.91;57.52;94958.66;4163422;28;20418;-65
2022/10/15 08:19:16;;;;;;;8.20;4.95;;;;;;;14.81;57.22;94963.34;4162776;28;20046;-64
2022/10/15 08:21:18;;;;;;;8.55;5.20;;;;;;;14.52;57.74;94961.44;4163685;28;20139;-63
2022/10/15 08:23:25;;;;;;;7.22;4.88;;;;;;;14.89;57.42;94962.47;4162897;28;20049;-63
2022/10/15 08:25:27;;;;;;;10.25;4.95;;;;;;;14.99;56.40;94960.38;4159675;28;20752;-65
2022/10/15 08:27:29;;;;;;;11.00;5.63;;;;;;;15.28;55.85;94956.97;4164241;28;20136;-64
2022/10/15 08:29:31;;;;;;;10.30;5.60;;;;;;;15.57;55.86;94958.78;4163527;28;20076;-64
2022/10/15 08:31:32;;;;;;;13.02;5.05;;;;;;;15.88;54.69;94957.75;4162354;28;20512;-64
2022/10/15 08:33:36;;;;;;;10.00;5.70;;;;;;;16.15;54.08;94955.41;4163869;28;20671;-64
2022/10/15 08:35:42;;;;;;;34.53;19.27;;;;;;;16.33;53.50;94958.44;4162404;28;20498;-63
2022/10/15 08:37:44;;;;;;;10.57;5.80;;;;;;;16.47;53.48;94953.28;4160724;28;20465;-66
2022/10/15 08:39:46;;;;;;;9.82;5.28;;;;;;;16.55;52.75;94942.59;4163490;28;20136;-65
2022/10/15 08:41:52;;;;;;;10.88;5.65;;;;;;;16.54;52.63;94946.22;4163634;28;20215;-63
2022/10/15 08:43:54;;;;;;;7.03;4.53;;;;;;;16.34;51.43;94948.69;4162386;28;20069;-63
2022/10/15 08:46:01;;;;;;;7.78;4.75;;;;;;;16.41;51.77;94944.28;4153017;28;20077;-67
2022/10/15 08:48:11;;;;;;;7.93;4.70;;;;;;;16.55;52.07;94939.94;4160294;28;20053;-64
2022/10/15 08:50:27;;;;;;;8.70;5.00;;;;;;;16.72;51.88;94941.31;4162089;28;20042;-64
2022/10/15 08:52:42;;;;;;;13.40;7.43;;;;;;;16.98;51.46;94942.56;4161567;28;20653;-65
2022/10/15 08:54:44;;;;;;;7.72;4.60;;;;;;;17.02;50.17;94949.09;4162405;28;20076;-64
2022/10/15 08:56:50;;;;;;;6.43;4.13;;;;;;;16.98;49.09;94940.72;4162152;28;20069;-65
2022/10/15 08:59:10;;;;;;;7.82;4.30;;;;;;;17.01;49.11;94954.59;4163289;28;20049;-63
2022/10/15 09:01:44;;;;;;;7.45;4.32;;;;;;;16.88;49.53;94945.53;4161920;28;20056;-64
2022/10/15 09:03:55;;;;;;;9.13;5.47;;;;;;;16.94;49.15;94952.69;4154913;28;20143;-64
2022/10/15 09:06:13;;;;;;;6.75;5.00;;;;;;;16.83;48.83;94947.94;4162605;28;20049;-65
2022/10/15 09:08:41;;;;;;;10.40;4.03;;;;;;;16.11;50.57;94956.78;4163064;28;20138;-64
2022/10/15 09:10:46;;;;;;;9.30;4.47;;;;;;;16.25;50.90;94950.63;4161865;28;20125;-65
2022/10/15 09:12:55;;;;;;;7.88;4.30;;;;;;;16.31;50.97;94960.47;4162086;28;20132;-64
2022/10/15 09:14:59;;;;;;;8.85;4.35;;;;;;;16.62;50.53;94948.75;4163156;28;20076;-64
2022/10/15 09:17:05;;;;;;;6.80;4.70;;;;;;;16.67;49.78;94951.66;4149938;28;20128;-64
2022/10/15 09:19:21;;;;;;;10.90;4.85;;;;;;;16.69;49.62;94962.88;4161761;28;20091;-63
2022/10/15 09:21:27;;;;;;;7.03;4.60;;;;;;;16.80;48.96;94958.91;4161145;28;20135;-65
2022/10/15 09:23:29;;;;;;;7.43;4.60;;;;;;;16.81;49.04;94954.44;4151301;28;20049;-65
2022/10/15 09:25:38;;;;;;;8.80;4.55;;;;;;;16.70;49.56;94951.25;4162503;28;20045;-65
2022/10/15 09:27:41;;;;;;;6.97;4.80;;;;;;;16.79;49.70;94950.09;4161564;28;20137;-65
2022/10/15 09:29:52;;;;;;;9.15;5.13;;;;;;;16.86;49.04;94947.53;4162859;28;20125;-67
2022/10/15 09:32:04;;;;;;;8.85;4.60;;;;;;;16.96;49.15;94950.69;4143622;28;20049;-66
2022/10/15 09:34:24;;;;;;;7.15;4.18;;;;;;;17.12;48.99;94960.19;4163178;28;20079;-67
2022/10/15 09:36:39;;;;;;;6.65;4.35;;;;;;;17.37;48.55;94949.94;4148961;28;20538;-66
2022/10/15 09:39:04;;;;;;;5.82;4.07;;;;;;;17.59;47.85;94947.19;4148467;28;20054;-65
2022/10/15 09:41:27;;;;;;;8.23;4.32;;;;;;;17.52;48.04;94941.88;4168344;28;20124;-65
2022/10/15 09:43:36;;;;;;;7.82;5.72;;;;;;;17.60;47.47;94947.00;4162840;28;20050;-65
2022/10/15 09:45:38;;;;;;;6.18;4.55;;;;;;;17.54;46.67;94939.84;4159971;28;20064;-65